Time;durP1;ratioP1;P1;durP2;ratioP2;P2;SDS_P1;SDS_P2;PMS_P1;PMS_P2;Temp;Humidity;BMP_temperature;BMP_pressure;BME280_temperature;BME280_humidity;BME280_pressure;Samples;Min_cycle;Max_cycle;Signal;HPM_P1;HPM_P2
2022/07/08 00:00:14;;;;;;;13.77;1.92;;;18.60;84.50;;;15.93;74.78;101875.56;5089475;28;20036;-80
2022/07/08 00:02:43;;;;;;;10.40;2.17;;;18.60;85.00;;;15.93;75.72;101874.72;5088447;28;20488;-80
2022/07/08 00:05:10;;;;;;;8.57;2.10;;;18.60;85.50;;;15.92;76.19;101873.88;5081352;28;20075;-80
2022/07/08 00:07:38;;;;;;;7.93;1.90;;;18.60;85.80;;;15.88;77.02;101877.16;5089658;28;20064;-80
2022/07/08 00:10:06;;;;;;;11.07;1.88;;;18.60;86.20;;;15.89;76.07;101868.75;5089470;28;20036;-80
2022/07/08 00:12:34;;;;;;;8.43;2.00;;;18.60;86.00;;;15.92;76.12;101873.88;5095059;28;20092;-80
2022/07/08 00:15:01;;;;;;;8.18;1.60;;;18.60;85.80;;;15.92;76.41;101876.63;5105010;28;20054;-80
2022/07/08 00:17:28;;;;;;;11.23;2.50;;;18.60;86.60;;;15.95;76.06;101875.38;5075010;28;20054;-79
2022/07/08 00:19:56;;;;;;;11.40;2.17;;;18.60;86.30;;;15.94;76.38;101877.28;5093005;28;20040;-79
2022/07/08 00:22:23;;;;;;;11.35;2.47;;;18.60;86.30;;;15.86;77.19;101873.75;5093931;28;20050;-80
2022/07/08 00:24:51;;;;;;;13.52;1.95;;;18.60;86.70;;;15.82;77.53;101876.00;5092552;28;20130;-80
2022/07/08 00:27:18;;;;;;;8.38;2.03;;;18.60;86.70;;;15.80;77.68;101869.84;5088444;28;20448;-80
2022/07/08 00:29:45;;;;;;;9.57;1.73;;;18.60;87.00;;;15.80;77.51;101878.09;5113746;28;20152;-80
2022/07/08 00:32:12;;;;;;;11.55;2.65;;;18.60;86.80;;;15.80;77.16;101875.34;5111532;28;20047;-80
2022/07/08 00:34:40;;;;;;;9.85;1.75;;;18.60;86.80;;;15.80;76.87;101870.72;5091524;28;20396;-80
2022/07/08 00:37:08;;;;;;;11.80;2.10;;;18.50;86.60;;;15.80;77.55;101872.59;5094888;28;20055;-80
2022/07/08 00:39:37;;;;;;;10.60;2.10;;;18.50;86.80;;;15.79;77.89;101873.66;5113597;28;20126;-80
2022/07/08 00:42:06;;;;;;;9.55;1.65;;;18.50;87.30;;;15.72;78.32;101878.16;5099694;28;20540;-80
2022/07/08 00:44:33;;;;;;;13.70;2.08;;;18.50;87.40;;;15.68;78.84;101874.91;5086960;28;20036;-80
2022/07/08 00:47:01;;;;;;;10.63;1.95;;;18.50;87.50;;;15.66;79.06;101874.25;5082429;28;20052;-80
2022/07/08 00:49:29;;;;;;;8.98;2.22;;;18.50;87.80;;;15.67;79.00;101875.09;5092810;28;20050;-79
2022/07/08 00:51:58;;;;;;;8.55;1.80;;;18.50;87.50;;;15.61;80.29;101877.56;5093885;28;20043;-80
2022/07/08 00:54:27;;;;;;;10.38;1.90;;;18.50;88.40;;;15.58;80.03;101883.41;5092732;28;20036;-80
2022/07/08 00:56:55;;;;;;;8.00;1.80;;;18.40;88.10;;;15.64;79.85;101879.91;5094753;28;20123;-80
2022/07/08 00:59:23;;;;;;;13.30;2.40;;;18.40;88.50;;;15.69;79.95;101884.00;5092787;28;20772;-80
2022/07/08 01:01:51;;;;;;;8.13;2.13;;;18.40;88.10;;;15.62;80.97;101883.91;5101057;28;20704;-80
2022/07/08 01:04:18;;;;;;;12.13;2.47;;;18.40;88.90;;;15.63;80.05;101875.47;5098013;28;20500;-80
2022/07/08 01:06:46;;;;;;;10.32;2.17;;;18.40;88.40;;;15.62;79.80;101886.63;5087875;28;20052;-80
2022/07/08 01:09:15;;;;;;;11.70;2.35;;;18.40;88.40;;;15.59;80.70;101885.13;5091475;28;20044;-80
2022/07/08 01:11:46;;;;;;;12.23;2.20;;;18.40;88.50;;;15.57;80.55;101889.94;5093063;28;20040;-80
2022/07/08 01:14:14;;;;;;;;;;;18.40;88.80;;;15.62;80.40;101892.97;5089632;28;20373;-80
2022/07/08 01:16:41;;;;;;;9.55;1.65;;;18.40;88.70;;;15.60;79.59;101892.31;5096472;28;19924;-80
2022/07/08 01:19:09;;;;;;;10.93;2.03;;;18.40;88.30;;;15.58;80.79;101899.03;5112813;28;20126;-80
2022/07/08 01:21:37;;;;;;;14.88;2.38;;;18.40;88.70;;;15.49;80.99;101895.47;5100969;28;20075;-80
2022/07/08 01:24:05;;;;;;;9.10;1.85;;;18.40;89.10;;;15.53;80.79;101901.44;5093908;28;20047;-80
2022/07/08 01:26:32;;;;;;;10.23;2.58;;;18.30;88.90;;;15.56;80.22;101899.19;5088149;28;20842;-80
2022/07/08 01:29:00;;;;;;;11.07;2.20;;;18.40;88.70;;;15.56;81.08;101898.34;5090343;28;21496;-80
2022/07/08 01:31:28;;;;;;;12.52;2.20;;;18.30;88.90;;;15.52;81.43;101899.75;5076480;28;20075;-80
2022/07/08 01:33:55;;;;;;;9.77;2.42;;;18.30;89.10;;;15.53;80.93;101902.31;5093017;28;20049;-81
2022/07/08 01:36:22;;;;;;;9.57;2.15;;;18.30;89.10;;;15.47;82.22;101900.28;5092227;28;20083;-80
2022/07/08 01:38:51;;;;;;;10.45;2.28;;;18.30;89.70;;;15.45;82.41;101908.69;5096267;28;20395;-80
2022/07/08 01:41:18;;;;;;;11.20;2.00;;;18.30;89.80;;;15.48;81.96;101907.50;5101046;28;20041;-80
2022/07/08 01:43:45;;;;;;;10.73;2.40;;;18.30;89.60;;;15.47;81.19;101892.06;5089935;28;20450;-80
2022/07/08 01:46:12;;;;;;;9.38;1.95;;;18.20;89.20;;;15.51;80.96;101887.06;5092638;28;20393;-80
2022/07/08 01:48:40;;;;;;;10.35;1.98;;;18.20;89.20;;;15.58;80.06;101899.88;5092087;28;20584;-80
2022/07/08 01:51:07;;;;;;;14.57;2.28;;;18.20;88.70;;;15.51;80.27;101887.06;5089454;28;20036;-80
2022/07/08 01:53:34;;;;;;;8.55;2.38;;;18.20;88.80;;;15.47;80.38;101889.31;5087218;28;20040;-80
2022/07/08 01:56:02;;;;;;;11.20;2.00;;;18.20;88.80;;;15.45;79.79;101896.88;5112385;28;20130;-80
2022/07/08 01:58:29;;;;;;;8.45;1.98;;;18.20;88.30;;;15.48;80.08;101885.56;5110609;28;20050;-80
2022/07/08 02:00:57;;;;;;;13.18;2.30;;;18.20;88.40;;;15.48;79.25;101893.78;5090018;28;20044;-80
2022/07/08 02:03:25;;;;;;;9.02;1.95;;;18.20;88.30;;;15.47;79.92;101888.47;5091671;28;20454;-80
2022/07/08 02:05:52;;;;;;;12.50;1.88;;;18.20;88.40;;;15.48;78.15;101887.41;5072985;28;20055;-80
2022/07/08 02:08:20;;;;;;;10.77;2.03;;;18.20;87.50;;;15.45;78.26;101891.41;5072861;28;20143;-80
2022/07/08 02:13:32;;;;;;;15.85;2.15;;;18.20;87.70;;;15.44;80.41;101892.44;5085613;28;20173;-79
2022/07/08 02:16:00;;;;;;;8.73;1.95;;;18.20;88.50;;;15.46;80.51;101890.38;5096804;28;20122;-80
2022/07/08 02:18:27;;;;;;;8.63;2.10;;;18.20;89.00;;;15.36;81.48;101884.25;5069136;28;20135;-79
2022/07/08 02:20:54;;;;;;;12.13;2.38;;;18.20;89.50;;;15.36;80.68;101881.50;5099141;28;20119;-80
2022/07/08 02:23:21;;;;;;;11.45;2.03;;;18.20;89.20;;;15.37;81.10;101885.97;5091604;28;20069;-80
2022/07/08 02:25:48;;;;;;;9.52;2.67;;;18.20;89.40;;;15.40;79.45;101882.84;5082659;28;20505;-79
2022/07/08 02:28:15;;;;;;;9.13;2.28;;;18.20;88.50;;;15.43;78.08;101890.72;5091023;28;20114;-80
2022/07/08 02:30:44;;;;;;;8.57;1.92;;;18.10;87.70;;;15.42;78.84;101886.25;5092137;28;20040;-80
2022/07/08 02:33:12;;;;;;;12.05;2.08;;;18.20;88.00;;;15.39;78.18;101881.16;5090060;28;20048;-80
2022/07/08 02:35:40;;;;;;;8.38;2.00;;;18.20;87.70;;;15.44;79.23;101886.97;5093405;28;20051;-79
2022/07/08 02:38:07;;;;;;;12.20;1.85;;;18.10;88.20;;;15.42;80.34;101883.53;5076904;28;20120;-80
2022/07/08 02:40:34;;;;;;;9.85;1.90;;;18.20;88.90;;;15.35;80.59;101877.09;5093786;28;20439;-80
2022/07/08 02:43:01;;;;;;;19.30;2.70;;;18.10;89.20;;;15.32;81.15;101882.91;5093165;28;20039;-80
2022/07/08 02:45:28;;;;;;;8.63;2.10;;;18.10;89.40;;;15.33;80.88;101884.66;5082670;28;20059;-80
2022/07/08 02:47:57;;;;;;;9.75;2.13;;;18.10;89.30;;;15.38;80.30;101887.66;5089770;28;20097;-80
2022/07/08 02:50:24;;;;;;;10.27;2.38;;;18.10;89.10;;;15.34;81.64;101886.34;5082373;28;20035;-80
2022/07/08 02:52:51;;;;;;;9.02;2.00;;;18.10;89.80;;;15.34;81.78;101891.81;5081993;28;20040;-80
2022/07/08 02:55:19;;;;;;;8.60;1.85;;;18.10;90.00;;;15.34;81.17;101889.91;5070620;28;20041;-80
2022/07/08 02:57:46;;;;;;;11.88;1.98;;;18.10;89.80;;;15.39;80.88;101883.91;5070581;28;20504;-80
2022/07/08 03:00:14;;;;;;;10.63;2.15;;;18.10;89.40;;;15.31;80.67;101878.50;5109947;28;20039;-80
2022/07/08 03:02:41;;;;;;;10.95;2.20;;;18.10;89.30;;;15.33;81.61;101885.50;5082203;28;20036;-80
2022/07/08 03:05:10;;;;;;;8.65;1.70;;;18.10;89.90;;;15.29;81.73;101888.75;5088893;28;20131;-80
2022/07/08 03:07:37;;;;;;;8.20;1.83;;;18.10;90.00;;;15.26;82.09;101898.22;5082159;28;20755;-80
2022/07/08 03:10:06;;;;;;;10.27;2.25;;;18.10;90.00;;;15.25;82.48;101889.16;5091530;28;20523;-80
2022/07/08 03:12:33;;;;;;;12.52;2.42;;;18.10;90.10;;;15.28;82.01;101898.88;5081883;28;20093;-79
2022/07/08 03:15:00;;;;;;;9.10;1.95;;;18.10;90.20;;;15.30;81.71;101896.81;5072536;28;20043;-80
2022/07/08 03:17:28;;;;;;;7.50;1.63;;;18.00;89.90;;;15.27;82.56;101899.06;5072281;28;20091;-80
2022/07/08 03:19:55;;;;;;;10.15;2.22;;;18.00;90.10;;;15.24;82.38;101898.38;5090313;28;20058;-79
2022/07/08 03:22:23;;;;;;;13.13;2.17;;;18.10;90.50;;;15.22;83.05;101899.63;5080774;28;20050;-80
2022/07/08 03:24:50;;;;;;;7.22;1.77;;;18.00;90.80;;;15.20;82.60;101902.53;5086624;28;20047;-80
2022/07/08 03:27:18;;;;;;;10.27;1.88;;;18.00;90.70;;;15.25;81.57;101902.84;5074160;28;20080;-80
2022/07/08 03:29:45;;;;;;;9.77;1.75;;;18.00;89.90;;;15.21;82.36;101904.25;5104109;28;20164;-80
2022/07/08 03:32:12;;;;;;;14.95;2.33;;;18.00;90.20;;;15.20;82.88;101896.22;5082042;28;20123;-79
2022/07/08 03:34:39;;;;;;;10.25;2.38;;;18.00;90.80;;;15.17;83.37;101902.03;5110406;28;20419;-80
2022/07/08 03:37:06;;;;;;;13.00;2.53;;;18.00;90.60;;;15.19;83.37;101900.84;5091859;28;20036;-80
2022/07/08 03:39:35;;;;;;;12.52;1.98;;;18.00;90.90;;;15.18;83.35;101898.28;5088093;28;20114;-80
2022/07/08 03:42:01;;;;;;;6.43;2.05;;;18.00;90.90;;;15.14;83.60;101908.75;5089531;28;20043;-79
2022/07/08 03:44:28;;;;;;;14.23;1.92;;;17.90;90.90;;;15.14;83.51;101910.66;5090158;28;20043;-80
2022/07/08 03:46:55;;;;;;;10.30;2.17;;;18.00;90.90;;;15.12;83.96;101913.56;5089948;28;20554;-80
2022/07/08 03:49:23;;;;;;;10.73;1.95;;;17.90;90.90;;;15.14;83.31;101916.13;5092294;28;20040;-80
2022/07/08 03:51:50;;;;;;;8.45;1.98;;;17.90;90.90;;;15.13;83.22;101912.50;5081601;28;20080;-79
2022/07/08 03:54:17;;;;;;;12.02;2.10;;;18.00;90.80;;;15.15;82.82;101910.44;5105351;28;20067;-80
2022/07/08 03:56:45;;;;;;;11.20;1.73;;;17.90;90.80;;;15.12;83.48;101910.81;5101803;28;20077;-80
2022/07/08 03:59:13;;;;;;;8.18;2.13;;;17.90;90.90;;;15.20;82.55;101910.75;5092491;28;20064;-80
2022/07/08 04:01:40;;;;;;;13.23;2.22;;;17.90;90.60;;;15.21;81.57;101908.88;5082426;28;20050;-80
2022/07/08 04:04:07;;;;;;;9.02;1.80;;;17.90;90.20;;;15.22;81.92;101913.34;5091205;28;20062;-80
2022/07/08 04:06:34;;;;;;;7.97;1.60;;;17.90;90.10;;;15.22;82.11;101919.66;5105682;22;20043;-88
2022/07/08 04:09:01;;;;;;;8.93;2.08;;;17.90;90.00;;;15.22;83.67;101927.03;5088902;28;20043;-89
2022/07/08 04:11:28;;;;;;;9.50;1.60;;;17.90;91.00;;;15.26;83.06;101922.91;5083559;28;20119;-88
2022/07/08 04:13:57;;;;;;;5.80;1.50;;;17.90;90.90;;;15.25;83.28;101922.06;5089672;28;20040;-88
2022/07/08 04:16:25;;;;;;;8.60;1.83;;;17.90;90.80;;;15.23;82.21;101918.66;5089638;28;20036;-88
2022/07/08 04:18:52;;;;;;;7.72;2.22;;;17.90;90.40;;;15.29;81.23;101911.59;5089430;28;20119;-88
2022/07/08 04:21:19;;;;;;;9.52;1.92;;;17.90;90.10;;;15.28;81.42;101915.34;5080792;28;20044;-89
2022/07/08 04:23:46;;;;;;;8.25;2.05;;;17.90;90.00;;;15.27;81.16;101913.66;5078358;28;20285;-89
2022/07/08 04:26:13;;;;;;;11.30;1.65;;;17.90;90.10;;;15.33;81.99;101920.31;5081065;28;20569;-88
2022/07/08 04:28:42;;;;;;;7.03;1.80;;;17.90;90.50;;;15.37;81.23;101918.91;5078890;28;20044;-88
2022/07/08 04:31:10;;;;;;;6.63;1.90;;;17.90;90.20;;;15.38;80.95;101915.97;5084961;28;20083;-88
2022/07/08 04:33:38;;;;;;;7.90;1.70;;;17.90;89.80;;;15.41;80.89;101926.56;5084152;28;20416;-88
2022/07/08 04:36:07;;;;;;;8.45;2.50;;;17.90;89.70;;;15.50;80.64;101926.50;5089847;28;20496;-89
2022/07/08 04:38:46;;;;;;;9.95;1.80;;;17.90;90.30;;;15.57;81.16;101925.63;5082690;28;20090;-88
2022/07/08 04:41:13;;;;;;;8.93;2.05;;;18.00;90.20;;;15.64;80.61;101931.22;5076783;28;20531;-88
2022/07/08 04:43:40;;;;;;;12.57;2.00;;;18.00;90.20;;;15.68;80.19;101934.44;5085985;28;20063;-88
2022/07/08 04:46:08;;;;;;;9.73;2.05;;;18.00;90.20;;;15.67;79.80;101944.59;5089013;28;20111;-88
2022/07/08 04:48:36;;;;;;;10.50;1.90;;;18.00;89.90;;;15.60;80.71;101946.34;5086024;28;20111;-89
2022/07/08 04:51:04;;;;;;;8.90;1.98;;;18.00;90.00;;;15.55;80.36;101952.34;5087402;28;20048;-88
2022/07/08 04:53:31;;;;;;;8.95;2.13;;;18.00;89.80;;;15.58;79.85;101954.75;5090797;28;20044;-88
2022/07/08 04:55:58;;;;;;;11.25;1.90;;;18.00;89.90;;;15.61;81.05;101962.63;5096406;28;20036;-89
2022/07/08 04:58:26;;;;;;;9.60;2.20;;;18.10;90.00;;;15.57;81.68;101972.28;5107726;28;20024;-88
2022/07/08 05:00:53;;;;;;;7.65;1.70;;;18.10;90.70;;;15.61;81.76;101970.88;5115558;28;20071;-88
2022/07/08 05:03:20;;;;;;;11.25;2.00;;;18.10;90.70;;;15.64;80.18;101978.72;5098450;28;20055;-85
2022/07/08 05:05:49;;;;;;;9.27;1.75;;;18.10;90.10;;;15.70;80.04;101981.78;5086864;28;20040;-82
2022/07/08 05:08:16;;;;;;;7.68;1.75;;;18.10;90.00;;;15.67;79.36;101979.38;5082901;28;20123;-82
2022/07/08 05:10:43;;;;;;;10.82;1.83;;;18.10;89.60;;;15.73;78.98;101984.16;5093384;28;20044;-81
2022/07/08 05:13:10;;;;;;;7.10;1.67;;;18.10;89.50;;;15.73;79.93;101985.03;5091399;28;20123;-80
2022/07/08 05:15:39;;;;;;;12.63;2.55;;;18.10;90.00;;;15.76;80.26;101990.19;5083933;28;20087;-81
2022/07/08 05:18:06;;;;;;;11.63;2.70;;;18.10;90.20;;;15.82;81.53;101983.06;5080530;28;20068;-81
2022/07/08 05:20:33;;;;;;;11.52;2.35;;;18.10;90.80;;;16.00;80.21;101980.03;5086866;28;20124;-81
2022/07/08 05:23:02;;;;;;;11.32;2.10;;;18.10;90.80;;;16.08;80.32;101979.09;5090278;28;20040;-82
2022/07/08 05:25:29;;;;;;;9.07;2.28;;;18.20;91.00;;;16.26;80.09;101981.50;5067830;28;20055;-82
2022/07/08 05:27:56;;;;;;;8.82;2.15;;;18.20;91.10;;;16.28;78.81;101982.16;5077629;28;20036;-81
2022/07/08 05:30:24;;;;;;;10.63;2.10;;;18.20;90.90;;;16.31;78.25;101976.31;5071985;28;20440;-81
2022/07/08 05:32:51;;;;;;;9.00;1.80;;;18.20;90.20;;;16.27;78.74;101981.31;5085606;28;20079;-81
2022/07/08 05:35:18;;;;;;;8.45;2.17;;;18.30;90.40;;;16.36;78.82;101976.63;5081641;28;20512;-81
2022/07/08 05:37:46;;;;;;;8.45;1.77;;;18.30;90.60;;;16.46;79.29;101984.59;5084511;28;20040;-84
2022/07/08 05:40:15;;;;;;;12.95;2.05;;;18.40;91.10;;;16.45;77.35;101980.13;5091674;28;20040;-86
2022/07/08 05:42:42;;;;;;;11.43;2.08;;;18.40;90.20;;;16.47;78.14;101983.53;5084576;28;20040;-85
2022/07/08 05:45:11;;;;;;;8.82;2.08;;;18.40;90.40;;;16.55;77.24;101977.97;5066319;28;20044;-85
2022/07/08 05:47:38;;;;;;;11.90;2.17;;;18.40;90.10;;;16.55;77.33;101977.97;5092113;28;20427;-86
2022/07/08 05:50:08;;;;;;;10.93;2.03;;;18.40;90.00;;;16.58;75.80;101977.56;5091680;28;20468;-84
2022/07/08 05:52:35;;;;;;;8.82;1.77;;;18.40;89.10;;;16.54;76.80;101977.09;5083974;28;20044;-85
2022/07/08 05:55:02;;;;;;;10.32;2.15;;;18.40;89.40;;;16.54;76.97;101981.75;5072199;28;20509;-86
2022/07/08 05:57:31;;;;;;;8.32;1.63;;;18.50;89.80;;;16.49;78.26;101978.72;5073125;28;20568;-85
2022/07/08 05:59:58;;;;;;;7.95;2.10;;;18.50;91.20;;;16.55;78.09;101987.06;5080206;28;20119;-86
2022/07/08 06:02:25;;;;;;;7.18;2.08;;;18.30;90.30;;;16.83;78.75;101980.94;5092185;28;20040;-85
2022/07/08 06:04:53;;;;;;;8.10;2.00;;;18.50;90.80;;;16.77;78.57;101976.16;5091923;28;20580;-87
2022/07/08 06:07:20;;;;;;;8.00;2.25;;;18.60;90.80;;;17.03;75.94;101985.88;5089270;28;20077;-87
2022/07/08 06:09:47;;;;;;;10.35;2.00;;;18.60;90.00;;;16.93;75.45;101980.66;5082864;28;20508;-86
2022/07/08 06:12:14;;;;;;;11.05;2.40;;;18.70;89.30;;;17.34;74.26;101975.47;5084068;28;20040;-88
2022/07/08 06:14:43;;;;;;;9.35;1.70;;;18.80;89.20;;;18.64;70.53;101980.88;5079457;28;20063;-84
2022/07/08 06:17:10;;;;;;;8.52;1.83;;;19.30;88.00;;;19.82;64.51;101970.59;5062926;28;20048;-84
2022/07/08 06:19:37;;;;;;;8.05;1.52;;;19.90;85.10;;;20.96;60.55;101978.78;5080837;28;20040;-81
2022/07/08 06:22:05;;;;;;;6.75;1.67;;;20.50;82.90;;;21.89;57.10;101970.00;5087891;28;20120;-82
2022/07/08 06:24:32;;;;;;;9.18;1.70;;;21.00;80.80;;;21.84;54.93;101973.47;5083782;28;20040;-83
2022/07/08 06:26:59;;;;;;;7.82;1.52;;;21.30;78.50;;;20.93;55.48;101982.00;5088486;28;20113;-83
2022/07/08 06:29:27;;;;;;;4.55;1.30;;;21.30;77.10;;;21.11;56.81;101986.84;5088936;28;20509;-84
2022/07/08 06:31:55;;;;;;;9.60;2.13;;;21.30;77.60;;;20.97;57.90;101986.88;5075113;28;20086;-84
2022/07/08 06:34:23;;;;;;;10.93;2.03;;;21.20;78.40;;;20.16;60.00;101985.25;5071389;28;20548;-85
2022/07/08 06:36:50;;;;;;;8.57;1.92;;;21.20;79.80;;;20.10;60.71;101997.19;5089752;28;20626;-85
2022/07/08 06:39:17;;;;;;;6.05;1.40;;;21.20;79.70;;;20.01;60.67;102001.22;5086424;28;20571;-83
2022/07/08 06:41:44;;;;;;;9.90;1.50;;;21.00;79.30;;;19.63;58.92;101998.97;5080793;28;20067;-81
2022/07/08 06:44:11;;;;;;;8.25;1.77;;;21.00;77.90;;;19.53;61.56;102008.53;5083020;28;20127;-82
2022/07/08 06:46:38;;;;;;;6.93;1.35;;;20.90;79.10;;;19.27;60.57;102005.69;5088139;28;20064;-83
2022/07/08 06:49:08;;;;;;;10.40;1.92;;;20.80;78.10;;;19.04;61.64;102005.97;5083113;28;20572;-83
2022/07/08 06:51:35;;;;;;;7.50;2.00;;;20.80;78.80;;;18.92;61.64;102003.81;5084393;28;20059;-83
2022/07/08 06:56:47;;;;;;;7.15;1.60;;;20.70;78.90;;;19.34;63.67;102001.00;5083612;28;20088;-82
2022/07/08 06:59:14;;;;;;;11.02;2.05;;;20.60;80.60;;;19.46;61.21;102004.06;5083242;28;20515;-84
2022/07/08 07:01:41;;;;;;;9.95;2.38;;;20.60;79.70;;;19.36;64.40;101998.91;5083623;28;20040;-80
2022/07/08 07:04:10;;;;;;;8.70;1.80;;;20.60;80.50;;;19.67;62.28;102000.28;5086917;28;20119;-81
2022/07/08 07:06:38;;;;;;;12.02;2.15;;;20.60;80.90;;;19.83;63.42;102005.44;5089460;28;20040;-81
2022/07/08 07:09:05;;;;;;;11.05;2.15;;;20.60;81.80;;;20.02;60.83;102005.69;5086975;28;20131;-81
2022/07/08 07:11:32;;;;;;;8.85;1.70;;;20.70;80.80;;;20.21;61.55;102010.38;5086550;28;20051;-81
2022/07/08 07:14:01;;;;;;;12.43;2.03;;;20.70;81.80;;;20.10;60.90;102019.28;5085916;28;20044;-83
2022/07/08 07:16:28;;;;;;;9.13;1.90;;;20.70;81.40;;;20.03;61.43;102023.94;5083342;28;20051;-84
2022/07/08 07:18:56;;;;;;;7.97;2.00;;;20.80;80.60;;;19.99;61.33;102019.91;5087410;28;20075;-76
2022/07/08 07:21:24;;;;;;;8.82;1.88;;;20.80;80.30;;;20.01;60.57;102026.09;5089677;28;20048;-83
2022/07/08 07:23:51;;;;;;;8.82;2.03;;;20.80;80.10;;;20.01;60.61;102018.66;5087537;28;20043;-84
2022/07/08 07:26:21;;;;;;;8.43;1.70;;;20.80;79.60;;;20.06;62.19;102018.84;5084766;28;20472;-82
2022/07/08 07:28:48;;;;;;;7.57;1.90;;;20.90;81.10;;;19.73;63.00;102024.34;5080479;28;20511;-82
2022/07/08 07:31:15;;;;;;;15.57;1.95;;;20.80;81.10;;;19.81;65.36;102021.38;5074952;28;20569;-83
2022/07/08 07:33:42;;;;;;;12.13;1.90;;;20.80;83.30;;;19.92;61.46;102031.81;5077504;28;20433;-82
2022/07/08 07:36:10;;;;;;;11.80;2.17;;;20.90;80.60;;;19.88;61.12;102021.41;5079278;28;20033;-82
2022/07/08 07:38:38;;;;;;;16.38;2.35;;;20.90;79.80;;;19.78;61.87;102023.69;5069810;28;20102;-81
2022/07/08 07:41:06;;;;;;;4.82;1.50;;;20.90;79.50;;;20.03;63.96;102021.19;5089841;28;20043;-81
2022/07/08 07:43:33;;;;;;;7.50;1.75;;;21.00;82.30;;;20.14;62.35;102026.09;5090325;28;20062;-81
2022/07/08 07:46:01;;;;;;;7.30;1.83;;;21.00;81.10;;;20.09;61.70;102020.38;5081123;28;20111;-82
2022/07/08 07:48:28;;;;;;;8.35;1.80;;;21.00;80.30;;;20.13;63.68;102012.50;5063991;28;20046;-82
2022/07/08 07:50:55;;;;;;;9.00;1.77;;;21.00;81.10;;;20.06;62.95;102015.25;5089561;28;20048;-82
2022/07/08 07:53:23;;;;;;;7.50;2.08;;;21.00;81.60;;;19.91;62.62;102008.03;5080895;28;20048;-82
2022/07/08 07:55:52;;;;;;;9.82;1.80;;;21.00;81.10;;;19.68;63.49;102002.81;5076246;28;20446;-83
2022/07/08 07:58:19;;;;;;;8.30;1.70;;;21.00;80.70;;;19.61;63.12;102023.19;5077146;28;20052;-86
2022/07/08 08:00:46;;;;;;;10.05;2.25;;;20.90;80.40;;;19.76;65.62;102006.50;5084247;28;20520;-82
2022/07/08 08:03:13;;;;;;;8.23;1.60;;;20.90;82.80;;;19.98;64.85;102007.19;5076910;28;20044;-80
2022/07/08 08:05:42;;;;;;;9.00;1.85;;;20.90;82.50;;;20.20;62.39;102000.38;5080023;28;20033;-82
2022/07/08 08:08:09;;;;;;;9.18;1.60;;;21.00;81.60;;;20.10;63.07;102011.00;5080144;28;20477;-83
2022/07/08 08:10:37;;;;;;;8.18;2.08;;;21.00;81.00;;;20.29;63.86;102007.38;5086219;28;20036;-81
2022/07/08 08:13:05;;;;;;;9.02;1.95;;;21.00;82.50;;;19.93;62.90;102013.31;5079366;28;20044;-82
2022/07/08 08:15:33;;;;;;;12.13;1.98;;;21.00;80.90;;;19.62;61.86;102024.91;5089655;28;20076;-81
2022/07/08 08:18:00;;;;;;;12.68;1.85;;;21.00;80.10;;;19.65;64.15;102030.03;5079111;28;20478;-79
2022/07/08 08:20:30;;;;;;;10.63;2.53;;;20.90;81.10;;;19.67;61.63;102027.91;5089003;28;20043;-81
2022/07/08 08:22:58;;;;;;;7.43;1.73;;;20.90;80.30;;;19.75;63.51;102027.75;5069002;28;20458;-84
2022/07/08 08:25:26;;;;;;;6.47;1.65;;;21.00;80.80;;;19.49;61.70;102034.84;5074994;28;20040;-85
2022/07/08 08:27:53;;;;;;;8.73;1.88;;;20.90;79.10;;;19.65;61.74;102024.50;5063141;28;20051;-84
2022/07/08 08:30:21;;;;;;;8.63;1.80;;;20.90;80.10;;;19.70;63.41;102033.00;5082643;28;20115;-81
2022/07/08 08:32:50;;;;;;;11.35;1.75;;;20.90;80.40;;;19.75;62.01;102036.03;5073120;28;20087;-80
2022/07/08 08:35:17;;;;;;;10.60;1.38;;;20.90;79.80;;;19.77;61.43;102039.44;5080735;28;20044;-80
2022/07/08 08:37:44;;;;;;;6.43;1.38;;;20.90;78.90;;;19.81;62.04;102024.13;5088047;28;20032;-80
2022/07/08 08:40:13;;;;;;;8.25;1.60;;;21.00;80.10;;;19.76;61.44;102037.72;5080119;28;20094;-80
2022/07/08 08:42:42;;;;;;;7.13;1.30;;;21.00;79.10;;;19.91;62.09;102030.13;5087705;28;20046;-80
2022/07/08 08:45:10;;;;;;;8.70;1.80;;;21.00;80.10;;;19.99;62.28;102025.44;5085994;28;20057;-80
2022/07/08 08:47:39;;;;;;;6.45;1.73;;;21.00;80.60;;;20.07;62.86;102022.50;5088045;28;20093;-80
2022/07/08 08:52:57;;;;;;;7.10;1.58;;;21.10;81.10;;;20.21;61.93;102020.59;5079333;28;20678;-80
2022/07/08 08:55:27;;;;;;;16.52;1.95;;;21.10;80.60;;;20.27;62.63;102028.03;5091699;28;20072;-79
2022/07/08 08:57:59;;;;;;;6.83;1.80;;;21.20;81.00;;;20.14;62.26;102028.00;5084339;28;20046;-80
2022/07/08 09:00:27;;;;;;;11.70;2.28;;;21.10;80.80;;;20.26;63.21;102032.72;5089820;28;20036;-80
2022/07/08 09:02:57;;;;;;;9.65;1.85;;;21.20;81.40;;;20.28;62.73;102035.28;5090936;28;20115;-80
2022/07/08 09:05:26;;;;;;;11.00;2.30;;;21.20;82.60;;;20.04;63.38;102037.56;5081490;28;20045;-80
2022/07/08 09:07:53;;;;;;;8.40;1.60;;;21.20;81.70;;;20.03;62.43;102035.00;5072371;28;20053;-80
2022/07/08 09:10:22;;;;;;;18.40;2.40;;;21.10;80.50;;;20.00;62.01;102032.69;5081407;28;20574;-80
2022/07/08 09:13:04;;;;;;;6.80;1.58;;;21.10;80.10;;;20.04;63.25;102033.97;5089045;28;20472;-80
2022/07/08 09:15:34;;;;;;;8.88;2.20;;;21.20;81.00;;;20.42;62.27;102030.59;5092647;28;20040;-80
2022/07/08 09:18:06;;;;;;;9.38;1.83;;;21.20;81.60;;;20.69;61.09;102021.25;5092670;28;20070;-80
2022/07/08 09:20:43;;;;;;;9.57;2.13;;;21.20;80.80;;;20.89;60.83;102023.13;5082636;28;20041;-80
2022/07/08 09:23:14;;;;;;;10.98;2.28;;;21.30;80.70;;;21.36;61.97;102034.88;5081992;28;20119;-80
2022/07/08 09:25:42;;;;;;;10.48;2.50;;;21.40;83.10;;;21.67;58.97;102033.28;5080955;28;20090;-80
2022/07/08 09:28:10;;;;;;;6.10;1.90;;;21.50;82.70;;;21.77;60.96;102025.31;5091913;28;20407;-80
2022/07/08 09:30:39;;;;;;;11.30;1.90;;;21.50;83.00;;;21.94;61.09;102011.78;5081063;28;20535;-80
2022/07/08 09:33:07;;;;;;;8.68;1.58;;;21.60;84.10;;;22.13;61.18;102025.72;5090472;28;20101;-80
2022/07/08 09:35:37;;;;;;;7.85;1.90;;;21.80;84.10;;;21.93;55.80;102020.31;5092443;28;20040;-80
2022/07/08 09:38:06;;;;;;;8.90;2.05;;;21.80;79.20;;;21.62;54.94;102016.47;5089846;28;20052;-80
2022/07/08 09:40:34;;;;;;;8.35;2.00;;;21.80;77.50;;;21.58;56.86;102017.97;5082026;28;20071;-80
2022/07/08 09:43:03;;;;;;;9.07;2.00;;;21.80;78.20;;;21.70;60.44;102009.81;5078351;28;20504;-80
2022/07/08 09:45:32;;;;;;;8.48;2.13;;;21.80;81.50;;;21.61;56.84;102017.50;5084557;28;20036;-80
2022/07/08 09:48:05;;;;;;;5.47;1.50;;;21.80;78.20;;;21.51;56.75;102017.16;5086170;28;20120;-80
2022/07/08 09:50:36;;;;;;;6.35;1.83;;;21.80;78.00;;;21.52;58.17;102010.56;5082353;28;20491;-80
2022/07/08 09:53:21;;;;;;;7.00;2.03;;;21.80;79.00;;;21.69;59.59;102008.97;5079462;28;20108;-80
2022/07/08 09:55:51;;;;;;;9.05;2.05;;;21.90;80.60;;;21.91;58.26;102012.22;5083037;28;20035;-80
2022/07/08 09:58:21;;;;;;;6.85;1.83;;;21.90;80.70;;;21.81;58.47;102003.56;5087215;28;20111;-80
2022/07/08 10:00:50;;;;;;;8.63;1.92;;;21.90;80.40;;;21.67;58.00;102002.78;5082781;28;20059;-80
2022/07/08 10:03:18;;;;;;;8.05;2.08;;;21.90;79.60;;;21.80;59.12;101994.41;5082891;28;20128;-80
2022/07/08 10:05:47;;;;;;;7.28;1.90;;;21.90;80.70;;;21.76;58.71;102009.78;5079585;28;20416;-82
2022/07/08 10:08:16;;;;;;;7.25;1.70;;;22.00;79.70;;;21.79;57.42;102001.00;5069699;22;20045;-78
2022/07/08 10:10:46;;;;;;;7.45;1.65;;;22.00;79.60;;;21.53;57.00;101996.47;5026728;28;20076;-79
2022/07/08 10:13:16;;;;;;;6.80;1.85;;;21.90;78.00;;;21.55;55.33;102002.66;5030922;28;20387;-80
2022/07/08 10:15:44;;;;;;;9.10;1.95;;;22.00;77.60;;;21.53;56.37;102006.69;5029632;28;20045;-79
2022/07/08 10:18:17;;;;;;;11.30;1.80;;;22.00;77.10;;;21.67;59.97;102000.03;5046578;28;20080;-78
2022/07/08 10:20:50;;;;;;;6.38;2.00;;;22.00;81.00;;;21.54;55.39;102002.88;5019703;28;20126;-78